Time;durP1;ratioP1;P1;durP2;ratioP2;P2;SDS_P1;SDS_P2;PMS_P1;PMS_P2;Temp;Humidity;BMP_temperature;BMP_pressure;BME280_temperature;BME280_humidity;BME280_pressure;Samples;Min_cycle;Max_cycle;Signal;HPM_P1;HPM_P2
2022/12/25 00:01:30;;;;;;;30.45;8.30;;;7.40;99.90;;;;;;5033701;28;20021;-55
2022/12/25 00:04:16;;;;;;;20.27;7.30;;;7.40;99.90;;;;;;5034509;28;20029;-58
2022/12/25 00:07:02;;;;;;;22.40;7.55;;;7.40;99.90;;;;;;5034063;28;20033;-58
2022/12/25 00:09:48;;;;;;;20.33;7.07;;;7.40;99.90;;;;;;5033995;28;20113;-57
2022/12/25 00:12:34;;;;;;;16.92;6.40;;;7.40;99.90;;;;;;5034332;28;20025;-60
2022/12/25 00:15:20;;;;;;;18.02;6.43;;;7.40;99.90;;;;;;5034167;28;20021;-59
2022/12/25 00:18:06;;;;;;;17.88;6.68;;;7.40;99.90;;;;;;5034687;28;20033;-58
2022/12/25 00:21:01;;;;;;;20.00;7.85;;;7.50;99.90;;;;;;5033260;28;20026;-60
2022/12/25 00:23:46;;;;;;;22.93;8.20;;;7.50;99.90;;;;;;5034286;28;20113;-58
2022/12/25 00:26:32;;;;;;;17.83;6.82;;;7.40;99.90;;;;;;5034183;28;20040;-58
2022/12/25 00:29:18;;;;;;;22.80;8.38;;;7.40;99.90;;;;;;5034119;28;20510;-57
2022/12/25 00:32:04;;;;;;;21.25;7.95;;;7.40;99.90;;;;;;5034459;28;20113;-57
2022/12/25 00:34:50;;;;;;;18.88;7.82;;;7.40;99.90;;;;;;5033931;28;20033;-54
2022/12/25 00:37:36;;;;;;;20.35;8.20;;;7.40;99.90;;;;;;5033746;28;20114;-58
2022/12/25 00:40:22;;;;;;;15.65;6.55;;;7.40;99.90;;;;;;5033440;28;20022;-55
2022/12/25 00:43:08;;;;;;;12.95;7.03;;;7.40;99.90;;;;;;5033615;28;20022;-58
2022/12/25 00:46:00;;;;;;;13.45;6.32;;;7.40;99.90;;;;;;5033586;28;20163;-56
2022/12/25 00:48:47;;;;;;;18.38;6.93;;;7.30;99.90;;;;;;5033780;28;20033;-59
2022/12/25 00:51:33;;;;;;;16.17;6.95;;;7.40;99.90;;;;;;5032624;28;20033;-59
2022/12/25 00:54:19;;;;;;;17.08;7.70;;;7.30;99.90;;;;;;5033313;28;20083;-59
2022/12/25 00:57:05;;;;;;;15.07;7.28;;;7.30;99.90;;;;;;5033458;28;20029;-57
2022/12/25 00:59:51;;;;;;;14.80;7.75;;;7.30;99.90;;;;;;5032121;28;20021;-58
2022/12/25 01:02:37;;;;;;;21.88;7.75;;;7.20;99.90;;;;;;5033072;28;20036;-59
2022/12/25 01:05:23;;;;;;;23.50;7.10;;;7.20;99.90;;;;;;5033143;28;20112;-59
2022/12/25 01:08:09;;;;;;;15.52;7.97;;;7.20;99.90;;;;;;5032669;28;20466;-56
2022/12/25 01:11:04;;;;;;;13.23;6.90;;;7.20;99.90;;;;;;5032586;28;20026;-57
2022/12/25 01:13:50;;;;;;;13.23;6.70;;;7.20;99.90;;;;;;5033107;28;20112;-56
2022/12/25 01:16:36;;;;;;;13.57;6.53;;;7.20;99.90;;;;;;5032742;28;20037;-54
2022/12/25 01:19:22;;;;;;;19.15;8.20;;;7.10;99.90;;;;;;5032230;28;20140;-57
2022/12/25 01:22:08;;;;;;;11.82;6.78;;;7.00;99.90;;;;;;5032684;28;20030;-56
2022/12/25 01:24:54;;;;;;;16.00;7.18;;;7.00;99.90;;;;;;5032850;28;20052;-59
2022/12/25 01:27:40;;;;;;;17.25;7.82;;;6.90;99.90;;;;;;5032815;28;20017;-55
2022/12/25 01:30:26;;;;;;;16.17;7.07;;;6.90;99.90;;;;;;5032313;28;20045;-57
2022/12/25 01:33:12;;;;;;;18.42;8.32;;;6.90;99.90;;;;;;5032343;28;20480;-57
2022/12/25 01:35:58;;;;;;;12.82;7.03;;;6.80;99.90;;;;;;5032707;28;20025;-53
2022/12/25 01:38:45;;;;;;;13.93;6.82;;;6.80;99.90;;;;;;5032404;28;20021;-54
2022/12/25 01:41:31;;;;;;;17.80;7.65;;;6.80;99.90;;;;;;5032295;28;20030;-59
2022/12/25 01:44:17;;;;;;;51.13;28.60;;;6.80;99.90;;;;;;5032478;28;20029;-58
2022/12/25 01:47:04;;;;;;;35.63;18.55;;;6.90;99.90;;;;;;5032572;28;20025;-58
2022/12/25 01:49:50;;;;;;;26.27;12.35;;;6.80;99.90;;;;;;5032332;28;20504;-54
2022/12/25 01:52:36;;;;;;;18.05;8.82;;;6.80;99.90;;;;;;5032027;28;20033;-52
2022/12/25 01:55:22;;;;;;;17.42;7.43;;;6.80;99.90;;;;;;5032426;28;20060;-59
2022/12/25 01:58:08;;;;;;;11.13;5.93;;;6.80;99.90;;;;;;5032135;28;20026;-58
2022/12/25 02:00:54;;;;;;;16.02;6.82;;;6.80;99.90;;;;;;5033689;28;20056;-57
2022/12/25 02:03:41;;;;;;;12.43;6.38;;;6.70;99.90;;;;;;5032221;28;20510;-55
2022/12/25 02:06:29;;;;;;;16.10;7.05;;;6.80;99.90;;;;;;5032068;28;20036;-58
2022/12/25 02:09:15;;;;;;;13.90;6.70;;;6.70;99.90;;;;;;5032711;28;20022;-59
2022/12/25 02:12:02;;;;;;;15.00;7.32;;;6.80;99.90;;;;;;5031738;28;20109;-58
2022/12/25 02:14:51;;;;;;;16.38;7.95;;;6.80;99.90;;;;;;5032412;28;20405;-57
2022/12/25 02:17:44;;;;;;;17.00;7.70;;;6.70;99.90;;;;;;5031875;28;20077;-55
2022/12/25 02:20:45;;;;;;;16.90;7.88;;;6.70;99.90;;;;;;5031715;28;20017;-59
2022/12/25 02:24:04;;;;;;;15.48;7.60;;;6.70;99.90;;;;;;5031355;28;20136;-59
2022/12/25 02:27:24;;;;;;;15.57;8.30;;;6.60;99.90;;;;;;5031619;28;20413;-58
2022/12/25 02:30:11;;;;;;;15.30;8.20;;;6.60;99.90;;;;;;5031444;28;20041;-58
2022/12/25 02:36:31;;;;;;;13.27;6.47;;;6.50;99.90;;;;;;5030548;28;20071;-55
2022/12/25 03:08:06;;;;;;;15.30;7.25;;;6.20;99.90;;;;;;5031828;28;20042;-56
2022/12/25 03:17:14;;;;;;;19.10;7.68;;;6.10;99.90;;;;;;5031718;28;20033;-57
2022/12/25 03:31:10;;;;;;;12.20;6.47;;;6.10;99.90;;;;;;5031635;28;20029;-59
2022/12/25 03:32:29;;;;;;;;;;;6.10;99.90;;;;;;5031676;28;20036;-59
2022/12/25 03:35:24;;;;;;;19.85;8.93;;;6.00;99.90;;;;;;5032927;28;19905;-59
2022/12/25 04:37:52;;;;;;;9.23;6.22;;;5.30;99.90;;;;;;5034483;28;20026;-58
2022/12/25 04:40:38;;;;;;;12.75;7.47;;;5.20;99.90;;;;;;5033404;28;20461;-58
2022/12/25 04:43:24;;;;;;;14.45;6.85;;;5.40;99.90;;;;;;5033644;28;20025;-58
2022/12/25 04:46:10;;;;;;;14.73;7.25;;;5.40;99.90;;;;;;5033276;28;20417;-59
2022/12/25 04:48:55;;;;;;;12.32;6.95;;;5.40;99.90;;;;;;5033629;28;20037;-58
2022/12/25 04:51:41;;;;;;;10.02;6.70;;;5.40;99.90;;;;;;5033203;28;20038;-57
2022/12/25 04:54:27;;;;;;;13.18;7.00;;;5.40;99.90;;;;;;5033422;28;20033;-52
2022/12/25 04:57:13;;;;;;;9.57;6.40;;;5.40;99.90;;;;;;5033502;28;20390;-58
2022/12/25 04:59:59;;;;;;;9.77;6.55;;;5.30;99.90;;;;;;5033248;28;20084;-53
2022/12/25 05:02:45;;;;;;;10.40;6.80;;;5.30;99.90;;;;;;5033516;28;20029;-58
2022/12/25 05:05:31;;;;;;;11.15;6.93;;;5.30;99.90;;;;;;5033331;28;20036;-57
2022/12/25 05:08:17;;;;;;;8.70;6.70;;;5.30;99.90;;;;;;5033318;28;20034;-57
2022/12/25 05:11:09;;;;;;;13.10;6.55;;;5.30;99.90;;;;;;5032867;28;20037;-57
2022/12/25 05:13:56;;;;;;;11.32;7.15;;;5.30;99.90;;;;;;5033180;28;20029;-59
2022/12/25 05:16:42;;;;;;;10.15;6.70;;;5.30;99.90;;;;;;5033823;28;20052;-57
2022/12/25 05:19:28;;;;;;;12.15;7.03;;;5.30;99.90;;;;;;5033218;28;20512;-57
2022/12/25 05:22:13;;;;;;;14.35;6.88;;;5.30;99.90;;;;;;5032786;28;20683;-58
2022/12/25 05:24:59;;;;;;;12.48;6.93;;;5.40;99.90;;;;;;5033149;28;20494;-59
2022/12/25 05:27:45;;;;;;;12.25;7.13;;;5.40;99.90;;;;;;5032870;28;20536;-56
2022/12/25 05:30:33;;;;;;;10.88;6.65;;;5.50;99.90;;;;;;5032477;28;20025;-57
2022/12/25 05:33:19;;;;;;;12.18;6.53;;;5.40;99.90;;;;;;5032691;28;20037;-58
2022/12/25 05:36:06;;;;;;;8.45;5.40;;;5.40;99.90;;;;;;5032933;28;20387;-56
2022/12/25 05:38:53;;;;;;;10.02;5.57;;;5.40;99.90;;;;;;5033829;28;20028;-54
2022/12/25 05:41:39;;;;;;;9.45;5.78;;;5.30;99.90;;;;;;5032498;28;20030;-55
2022/12/25 05:44:25;;;;;;;8.05;5.55;;;5.20;99.90;;;;;;5031571;28;20052;-55
2022/12/25 05:47:11;;;;;;;7.43;5.65;;;5.10;99.90;;;;;;5032469;28;20080;-57
2022/12/25 05:49:57;;;;;;;7.43;4.78;;;5.10;99.90;;;;;;5032488;28;20032;-58
2022/12/25 05:52:43;;;;;;;10.32;5.65;;;5.10;99.90;;;;;;5032289;28;20030;-54
2022/12/25 05:55:29;;;;;;;6.78;5.32;;;5.00;99.90;;;;;;5032503;28;20026;-52
2022/12/25 05:58:15;;;;;;;7.65;5.47;;;5.00;99.90;;;;;;5031221;28;20030;-57
2022/12/25 06:01:01;;;;;;;8.15;5.72;;;5.00;99.90;;;;;;5033094;28;20132;-56
2022/12/25 06:03:47;;;;;;;8.95;5.40;;;5.00;99.90;;;;;;5031782;28;20426;-58
2022/12/25 06:06:33;;;;;;;8.02;5.45;;;5.10;99.90;;;;;;5032411;28;20037;-57
2022/12/25 06:09:19;;;;;;;10.52;6.00;;;5.10;99.90;;;;;;5032125;28;20041;-58
2022/12/25 06:12:05;;;;;;;8.90;5.90;;;5.10;99.90;;;;;;5032216;28;20033;-58
2022/12/25 06:14:51;;;;;;;10.15;6.57;;;5.10;99.90;;;;;;5032123;28;20662;-56
2022/12/25 06:17:37;;;;;;;9.93;6.53;;;5.20;99.90;;;;;;5031728;28;20116;-54
2022/12/25 06:20:23;;;;;;;10.45;6.38;;;5.20;99.90;;;;;;5031602;28;20080;-57
2022/12/25 06:23:10;;;;;;;8.75;6.40;;;5.30;99.90;;;;;;5031454;28;20026;-57
2022/12/25 06:25:55;;;;;;;9.60;6.38;;;5.30;99.90;;;;;;5032541;28;20052;-56
2022/12/25 06:28:42;;;;;;;8.90;5.90;;;5.30;99.90;;;;;;5031428;28;20034;-58
2022/12/25 06:31:28;;;;;;;9.15;6.10;;;5.30;99.90;;;;;;5031445;28;20116;-59
2022/12/25 06:34:15;;;;;;;9.32;6.47;;;5.30;99.90;;;;;;5031213;28;20030;-59
2022/12/25 06:37:01;;;;;;;8.80;6.32;;;5.30;99.90;;;;;;5030489;28;20025;-58
2022/12/25 06:39:47;;;;;;;14.02;7.22;;;5.40;99.90;;;;;;5031405;28;20482;-58
2022/12/25 06:42:33;;;;;;;13.30;6.35;;;5.50;99.90;;;;;;5031362;28;20033;-59
2022/12/25 06:45:19;;;;;;;7.20;5.82;;;5.50;99.90;;;;;;5031189;28;20025;-57
2022/12/25 06:48:04;;;;;;;9.50;6.40;;;5.40;99.90;;;;;;5031630;28;20061;-59
2022/12/25 06:50:50;;;;;;;10.25;5.95;;;5.40;99.90;;;;;;5031480;28;20029;-57
2022/12/25 06:53:36;;;;;;;8.98;6.22;;;5.40;99.90;;;;;;5031858;28;20033;-55
2022/12/25 06:56:25;;;;;;;9.60;6.22;;;5.50;99.90;;;;;;5031679;28;20536;-53
2022/12/25 06:59:11;;;;;;;10.00;6.10;;;5.50;99.90;;;;;;5031550;28;20436;-59
2022/12/25 07:01:57;;;;;;;9.65;6.63;;;5.40;99.90;;;;;;5031284;28;20504;-58
2022/12/25 07:04:44;;;;;;;11.10;6.47;;;5.40;99.90;;;;;;5031455;28;20037;-56
2022/12/25 07:07:30;;;;;;;9.30;5.97;;;5.40;99.90;;;;;;5031604;28;20037;-57
2022/12/25 07:10:16;;;;;;;7.95;5.55;;;5.40;99.90;;;;;;5034352;28;20037;-59
2022/12/25 07:13:02;;;;;;;16.13;9.15;;;5.40;99.90;;;;;;5034571;28;20097;-58
2022/12/25 07:16:01;;;;;;;10.60;7.00;;;5.60;99.90;;;;;;5035308;28;20032;-60
2022/12/25 07:18:48;;;;;;;21.45;12.85;;;5.60;99.90;;;;;;5034634;28;20417;-57
2022/12/25 07:21:33;;;;;;;12.70;8.15;;;5.60;99.90;;;;;;5034587;28;20032;-58
2022/12/25 07:24:21;;;;;;;9.68;7.32;;;5.70;99.90;;;;;;5035179;28;20025;-55
2022/12/25 07:27:07;;;;;;;11.05;6.97;;;5.70;99.90;;;;;;5036312;28;20117;-57
2022/12/25 07:29:53;;;;;;;11.15;8.27;;;5.60;99.90;;;;;;5035124;28;20044;-58
2022/12/25 07:32:39;;;;;;;14.88;7.47;;;5.60;99.90;;;;;;5035450;28;20418;-58
2022/12/25 07:35:24;;;;;;;13.93;10.70;;;5.70;99.90;;;;;;5034955;28;20406;-57
2022/12/25 07:38:11;;;;;;;14.38;10.20;;;5.70;99.90;;;;;;5035068;28;20510;-55
2022/12/25 07:40:57;;;;;;;15.20;8.48;;;5.70;99.90;;;;;;5034335;28;20108;-57
2022/12/25 07:43:43;;;;;;;12.10;7.70;;;5.70;99.90;;;;;;5034671;28;20087;-57
2022/12/25 07:46:29;;;;;;;12.82;8.77;;;5.80;99.90;;;;;;5034312;28;20108;-58
2022/12/25 07:49:14;;;;;;;15.10;9.05;;;5.90;99.90;;;;;;5034882;28;20056;-58
2022/12/25 07:52:00;;;;;;;17.75;10.55;;;6.00;99.90;;;;;;5034333;28;20425;-55
2022/12/25 07:54:46;;;;;;;18.45;8.73;;;6.00;99.90;;;;;;5034676;28;20091;-55
2022/12/25 07:57:34;;;;;;;18.13;9.60;;;6.00;99.90;;;;;;5035475;28;20021;-58
2022/12/25 08:00:20;;;;;;;13.40;8.85;;;6.10;99.90;;;;;;5034156;28;20033;-53
2022/12/25 08:03:06;;;;;;;12.30;8.90;;;6.10;99.90;;;;;;5034364;28;20116;-51
2022/12/25 08:05:52;;;;;;;18.13;9.43;;;6.10;99.90;;;;;;5033385;28;20532;-57
2022/12/25 08:08:39;;;;;;;17.95;9.05;;;6.10;99.90;;;;;;5034193;28;20033;-58
2022/12/25 08:11:24;;;;;;;14.15;8.70;;;6.10;99.90;;;;;;5035032;28;20037;-55
2022/12/25 08:14:10;;;;;;;18.20;8.98;;;6.20;99.90;;;;;;5034026;28;20083;-59
2022/12/25 08:16:56;;;;;;;13.68;9.38;;;6.20;99.90;;;;;;5035413;28;20758;-59
2022/12/25 08:19:42;;;;;;;15.57;9.13;;;6.30;99.90;;;;;;5035114;28;20108;-59
2022/12/25 08:22:28;;;;;;;13.85;9.48;;;6.30;99.90;;;;;;5033360;28;20021;-59
2022/12/25 08:25:14;;;;;;;14.82;8.88;;;6.30;99.90;;;;;;5034184;28;20022;-55
2022/12/25 08:28:00;;;;;;;16.92;8.90;;;6.40;99.90;;;;;;5033695;28;20485;-57
2022/12/25 08:30:46;;;;;;;14.57;8.50;;;6.40;99.90;;;;;;5034733;28;20029;-61
2022/12/25 08:33:32;;;;;;;15.32;9.32;;;6.40;99.90;;;;;;5035043;28;20026;-59
2022/12/25 08:36:18;;;;;;;17.20;9.82;;;6.40;99.90;;;;;;5033913;28;20021;-59
2022/12/25 08:39:04;;;;;;;13.13;8.90;;;6.50;99.90;;;;;;5035051;28;20478;-56
2022/12/25 08:41:50;;;;;;;12.15;8.38;;;6.50;99.90;;;;;;5033630;28;20026;-57
2022/12/25 08:44:36;;;;;;;15.95;9.93;;;6.60;99.90;;;;;;5034951;28;20029;-58
2022/12/25 08:47:22;;;;;;;15.60;9.32;;;6.60;99.90;;;;;;5033734;28;20030;-54
2022/12/25 08:50:08;;;;;;;15.63;8.88;;;6.70;99.90;;;;;;5033424;28;20033;-57
2022/12/25 08:52:54;;;;;;;18.50;10.93;;;6.80;99.90;;;;;;5033976;28;20116;-59
2022/12/25 08:55:40;;;;;;;15.80;9.25;;;6.90;99.90;;;;;;5032862;28;20029;-57
2022/12/25 08:58:27;;;;;;;16.63;11.30;;;7.00;99.90;;;;;;5034647;28;20057;-55
2022/12/25 09:01:13;;;;;;;17.15;9.98;;;7.00;99.90;;;;;;5032256;28;20501;-59
2022/12/25 09:03:59;;;;;;;18.83;10.40;;;7.10;99.90;;;;;;5033578;28;20120;-57
2022/12/25 09:06:45;;;;;;;18.30;11.20;;;7.20;99.90;;;;;;5032888;28;20030;-60
2022/12/25 09:09:31;;;;;;;14.98;9.68;;;7.20;99.90;;;;;;5033303;28;20030;-55
2022/12/25 09:12:17;;;;;;;18.35;10.07;;;7.20;99.90;;;;;;5033030;28;20470;-59
2022/12/25 09:15:05;;;;;;;18.63;9.90;;;7.20;99.90;;;;;;5032785;28;20029;-58
2022/12/25 09:17:51;;;;;;;18.52;10.57;;;7.30;99.90;;;;;;5033347;28;20029;-57
2022/12/25 09:20:37;;;;;;;16.63;10.45;;;7.30;99.90;;;;;;5032238;28;20025;-54
2022/12/25 09:23:23;;;;;;;20.75;11.10;;;7.40;99.90;;;;;;5032479;28;20040;-56
2022/12/25 09:26:14;;;;;;;20.58;10.35;;;7.40;99.90;;;;;;5032614;28;20037;-60
2022/12/25 09:29:00;;;;;;;22.30;10.90;;;7.40;99.90;;;;;;5032252;28;20026;-59
2022/12/25 09:31:46;;;;;;;22.08;9.95;;;7.50;99.90;;;;;;5031344;28;20045;-56
2022/12/25 09:34:32;;;;;;;26.25;12.82;;;7.50;99.90;;;;;;5032242;28;20402;-54
2022/12/25 09:37:18;;;;;;;20.38;13.10;;;7.50;99.90;;;;;;5031622;28;20469;-56
2022/12/25 09:40:05;;;;;;;18.65;10.73;;;7.50;99.90;;;;;;5032182;28;20044;-57
2022/12/25 09:42:53;;;;;;;24.88;10.93;;;7.70;99.90;;;;;;5032317;28;20268;-57
2022/12/25 09:45:39;;;;;;;16.83;10.40;;;7.70;99.90;;;;;;5032078;28;20394;-55
2022/12/25 09:48:29;;;;;;;19.90;10.20;;;7.80;99.90;;;;;;5031946;28;20032;-52
2022/12/25 09:51:17;;;;;;;19.63;10.20;;;7.80;99.90;;;;;;5031780;28;20104;-55
2022/12/25 09:54:11;;;;;;;18.45;9.70;;;7.70;99.90;;;;;;5032137;28;20038;-55
2022/12/25 09:56:57;;;;;;;20.75;10.05;;;7.70;99.90;;;;;;5033572;28;20109;-57
2022/12/25 09:59:43;;;;;;;20.17;10.88;;;7.70;99.90;;;;;;5032131;28;20064;-57
2022/12/25 10:02:29;;;;;;;15.40;9.50;;;7.80;99.90;;;;;;5031591;28;20028;-58
2022/12/25 10:05:34;;;;;;;19.08;9.95;;;7.90;99.90;;;;;;5033598;28;20025;-55
2022/12/25 10:08:26;;;;;;;19.25;9.55;;;8.10;99.90;;;;;;5032465;28;20018;-56
2022/12/25 10:11:34;;;;;;;20.42;10.18;;;8.20;99.90;;;;;;5031754;28;20084;-55
2022/12/25 10:14:28;;;;;;;19.45;10.18;;;8.20;99.90;;;;;;5030571;28;20048;-57
2022/12/25 10:17:40;;;;;;;22.63;10.85;;;8.20;99.90;;;;;;5031390;28;20489;-56
2022/12/25 10:20:39;;;;;;;23.88;10.00;;;8.30;99.90;;;;;;5031287;28;20116;-57
2022/12/25 10:23:37;;;;;;;19.50;10.88;;;8.40;99.90;;;;;;5031498;28;20033;-58
2022/12/25 10:26:25;;;;;;;22.90;12.40;;;8.40;99.90;;;;;;5032059;28;20060;-55
2022/12/25 10:29:13;;;;;;;20.85;12.93;;;8.50;99.90;;;;;;5032581;28;20453;-56
2022/12/25 10:31:59;;;;;;;22.45;11.93;;;8.50;99.90;;;;;;5031025;28;20033;-57
2022/12/25 10:34:45;;;;;;;19.92;10.98;;;8.60;99.90;;;;;;5031257;28;20044;-59
2022/12/25 10:37:32;;;;;;;20.58;10.35;;;8.70;99.90;;;;;;5031073;28;20018;-59
2022/12/25 10:40:43;;;;;;;18.42;10.18;;;8.80;99.90;;;;;;5031213;28;20026;-58
2022/12/25 10:43:37;;;;;;;21.70;11.43;;;8.90;99.90;;;;;;5030819;28;20032;-54
2022/12/25 10:46:27;;;;;;;21.88;14.07;;;8.90;99.90;;;;;;5077201;22;20017;-56
2022/12/25 10:49:15;;;;;;;24.23;13.95;;;8.90;99.90;;;;;;4996195;28;20018;-51
2022/12/25 10:52:02;;;;;;;20.08;11.80;;;8.90;99.90;;;;;;5009672;28;20018;-52
2022/12/25 10:54:50;;;;;;;18.65;10.55;;;8.90;99.90;;;;;;5010002;28;20459;-52
2022/12/25 10:57:45;;;;;;;15.93;9.73;;;8.80;99.90;;;;;;5010682;28;20489;-49
2022/12/25 11:00:31;;;;;;;22.45;11.98;;;8.90;99.90;;;;;;5013732;28;20022;-51
2022/12/25 11:03:24;;;;;;;18.05;10.73;;;8.90;99.90;;;;;;5031642;28;20029;-51
2022/12/25 11:06:25;;;;;;;23.40;10.73;;;8.90;99.90;;;;;;5031104;28;20049;-54
2022/12/25 11:09:15;;;;;;;15.63;10.80;;;8.90;99.90;;;;;;5032395;28;20017;-49
2022/12/25 11:12:01;;;;;;;21.92;11.25;;;8.90;99.90;;;;;;5032240;28;20026;-52
2022/12/25 11:14:56;;;;;;;18.33;10.65;;;8.90;99.90;;;;;;5032039;28;20470;-49
2022/12/25 11:17:48;;;;;;;22.97;12.13;;;8.80;99.90;;;;;;5032563;28;20030;-55
2022/12/25 11:20:35;;;;;;;15.07;10.82;;;8.80;99.90;;;;;;5032173;28;20628;-52
2022/12/25 11:23:23;;;;;;;21.02;11.57;;;8.80;99.90;;;;;;5031234;28;20057;-49
2022/12/25 11:26:10;;;;;;;18.55;11.77;;;8.80;99.90;;;;;;5032775;28;20029;-53
2022/12/25 11:28:57;;;;;;;16.15;10.25;;;8.90;99.90;;;;;;5032248;28;20025;-54
2022/12/25 11:31:45;;;;;;;18.75;11.20;;;8.90;99.90;;;;;;5029987;28;20116;-51
2022/12/25 11:34:45;;;;;;;16.08;11.02;;;9.00;99.90;;;;;;5031221;28;20034;-55
2022/12/25 11:37:39;;;;;;;18.55;10.60;;;9.10;99.90;;;;;;5031214;28;20386;-55
2022/12/25 11:40:40;;;;;;;16.60;11.25;;;9.10;99.90;;;;;;5032021;28;20025;-55
2022/12/25 11:43:32;;;;;;;19.83;11.18;;;9.20;99.90;;;;;;5031346;28;20021;-52
2022/12/25 11:46:24;;;;;;;17.70;11.63;;;9.20;99.90;;;;;;5032120;28;20025;-52
2022/12/25 11:49:15;;;;;;;19.25;11.05;;;9.20;99.90;;;;;;5032093;28;20040;-52
2022/12/25 11:52:01;;;;;;;16.42;11.00;;;9.20;99.90;;;;;;5031981;28;20095;-53
2022/12/25 11:54:55;;;;;;;21.95;11.30;;;9.20;99.90;;;;;;5030067;28;20033;-55
2022/12/25 11:57:44;;;;;;;19.83;10.73;;;9.30;99.90;;;;;;5036073;28;20022;-49
2022/12/25 12:00:32;;;;;;;22.98;11.48;;;9.40;99.90;;;;;;5035353;28;20052;-52
2022/12/25 12:03:23;;;;;;;19.63;11.38;;;9.50;99.90;;;;;;5035755;28;20057;-55
2022/12/25 12:06:25;;;;;;;25.42;12.40;;;9.50;99.90;;;;;;5034049;28;20061;-54
2022/12/25 12:09:35;;;;;;;16.80;10.60;;;9.60;99.90;;;;;;5035753;28;20692;-52
2022/12/25 12:12:49;;;;;;;22.63;12.32;;;9.70;99.90;;;;;;5033569;28;20029;-52
2022/12/25 12:15:41;;;;;;;18.52;11.60;;;9.70;99.90;;;;;;5035461;28;20029;-51
2022/12/25 12:18:27;;;;;;;20.85;10.98;;;9.80;99.90;;;;;;5034649;28;20024;-50
2022/12/25 12:21:23;;;;;;;15.30;11.27;;;9.80;99.90;;;;;;5034989;28;20021;-52
2022/12/25 12:24:14;;;;;;;15.35;11.20;;;9.90;99.90;;;;;;5035723;28;20528;-49
2022/12/25 12:27:04;;;;;;;17.13;10.60;;;9.90;99.90;;;;;;5034144;28;20083;-51
2022/12/25 12:29:57;;;;;;;16.25;11.52;;;9.80;99.90;;;;;;5046962;28;20030;-51
2022/12/25 12:32:48;;;;;;;19.58;13.00;;;9.90;99.90;;;;;;5035386;28;20026;-49
2022/12/25 12:35:39;;;;;;;17.17;10.63;;;9.90;99.90;;;;;;5033583;28;20041;-47
2022/12/25 12:38:26;;;;;;;15.27;11.05;;;9.90;99.90;;;;;;5035594;28;20025;-49
2022/12/25 12:41:13;;;;;;;20.80;13.50;;;9.90;99.90;;;;;;5033740;28;20029;-51
2022/12/25 12:44:03;;;;;;;24.92;14.60;;;9.80;99.90;;;;;;5035166;28;20036;-53
2022/12/25 12:46:56;;;;;;;22.85;12.07;;;9.90;99.90;;;;;;5032768;28;20363;-48
2022/12/25 12:49:41;;;;;;;18.27;11.77;;;9.80;99.90;;;;;;5048735;28;20029;-53
2022/12/25 12:52:34;;;;;;;20.13;12.50;;;9.80;99.90;;;;;;5036439;28;20057;-52
2022/12/25 12:55:32;;;;;;;19.83;11.93;;;9.90;99.90;;;;;;5036315;28;20029;-54
2022/12/25 12:58:34;;;;;;;21.42;11.40;;;9.90;99.90;;;;;;5035465;28;20389;-56
2022/12/25 13:01:26;;;;;;;22.27;12.23;;;9.90;99.90;;;;;;5032859;28;20490;-53
2022/12/25 13:04:33;;;;;;;17.95;11.90;;;9.90;99.90;;;;;;5034634;28;20025;-51
2022/12/25 13:07:47;;;;;;;22.00;12.68;;;9.90;99.90;;;;;;5034735;28;20500;-58
2022/12/25 13:10:37;;;;;;;19.20;11.70;;;9.90;99.90;;;;;;5034699;28;20030;-53
2022/12/25 13:13:34;;;;;;;14.82;11.20;;;9.80;99.90;;;;;;5034839;28;20110;-54
2022/12/25 13:16:28;;;;;;;22.27;14.20;;;9.90;99.90;;;;;;5035688;28;20021;-52
2022/12/25 13:19:20;;;;;;;25.55;16.10;;;9.80;99.90;;;;;;5033970;28;20064;-51
2022/12/25 13:22:06;;;;;;;17.10;10.82;;;9.80;99.90;;;;;;5034536;28;20020;-49
2022/12/25 13:24:59;;;;;;;15.25;9.57;;;9.80;99.90;;;;;;5034703;28;20036;-49
2022/12/25 13:27:53;;;;;;;14.07;9.18;;;9.80;99.90;;;;;;5035229;28;20057;-49
2022/12/25 13:30:39;;;;;;;15.60;9.35;;;9.80;99.90;;;;;;5033951;28;20031;-53
2022/12/25 13:33:25;;;;;;;14.30;9.63;;;9.80;99.90;;;;;;5033619;28;20033;-55
2022/12/25 13:36:12;;;;;;;17.13;10.57;;;9.80;99.90;;;;;;5034400;28;20029;-52
2022/12/25 13:38:58;;;;;;;17.60;9.77;;;9.80;99.90;;;;;;5034328;28;20018;-51
2022/12/25 13:42:05;;;;;;;19.02;9.20;;;9.80;99.90;;;;;;5035370;28;20032;-52
2022/12/25 13:45:05;;;;;;;15.48;9.95;;;9.80;99.90;;;;;;5033899;28;20083;-54
2022/12/25 13:47:51;;;;;;;16.25;9.40;;;9.80;99.90;;;;;;5035003;28;20119;-55
2022/12/25 13:50:38;;;;;;;16.63;9.50;;;9.80;99.90;;;;;;5033973;28;20091;-52
2022/12/25 13:53:24;;;;;;;14.98;9.32;;;9.80;99.90;;;;;;5033781;28;20026;-55
2022/12/25 13:56:14;;;;;;;11.05;8.88;;;9.80;99.90;;;;;;5033955;28;20039;-53
2022/12/25 13:59:00;;;;;;;16.63;9.30;;;9.80;99.90;;;;;;5032527;28;20032;-53
2022/12/25 14:01:48;;;;;;;12.82;9.10;;;9.80;99.90;;;;;;5033296;28;20482;-56
2022/12/25 14:04:43;;;;;;;15.70;9.45;;;9.80;99.90;;;;;;5033505;28;20442;-54
2022/12/25 14:07:29;;;;;;;14.50;9.47;;;9.80;99.90;;;;;;5033479;28;20398;-54
2022/12/25 14:10:16;;;;;;;17.65;10.68;;;9.80;99.90;;;;;;5033171;28;20506;-54
2022/12/25 14:13:05;;;;;;;17.33;10.40;;;9.80;99.90;;;;;;5033409;28;20033;-55
2022/12/25 14:15:52;;;;;;;17.27;10.27;;;9.70;99.90;;;;;;5033343;28;20587;-59
2022/12/25 14:18:49;;;;;;;15.15;10.23;;;9.70;99.90;;;;;;5032501;28;20021;-60
2022/12/25 14:21:39;;;;;;;19.70;10.85;;;9.70;99.90;;;;;;5033089;28;20044;-59
2022/12/25 14:24:26;;;;;;;20.08;10.45;;;9.60;99.90;;;;;;5032898;28;20044;-58
2022/12/25 14:27:25;;;;;;;16.17;9.98;;;9.60;99.90;;;;;;5032817;28;20076;-57
2022/12/25 14:30:12;;;;;;;16.80;10.07;;;9.70;99.90;;;;;;5032474;28;20030;-55
2022/12/25 14:32:58;;;;;;;15.48;10.40;;;9.70;99.90;;;;;;5033033;28;20055;-56
2022/12/25 14:35:46;;;;;;;13.73;10.07;;;9.70;99.90;;;;;;5024236;28;20034;-57
2022/12/25 14:38:39;;;;;;;18.25;10.15;;;9.60;99.90;;;;;;5010785;28;20038;-54
2022/12/25 14:41:38;;;;;;;13.07;9.80;;;9.60;99.90;;;;;;5011028;28;20040;-54
2022/12/25 14:44:37;;;;;;;15.55;9.80;;;9.50;99.90;;;;;;5012272;28;20057;-55
2022/12/25 14:47:23;;;;;;;16.70;10.25;;;9.60;99.90;;;;;;5012466;28;20038;-53
2022/12/25 14:50:14;;;;;;;17.00;10.75;;;9.60;99.90;;;;;;5012171;28;20076;-50
2022/12/25 14:53:00;;;;;;;16.65;10.90;;;9.60;99.90;;;;;;5011123;28;20034;-56
2022/12/25 14:55:53;;;;;;;13.65;9.88;;;9.60;99.90;;;;;;5012130;28;20398;-54
2022/12/25 14:58:45;;;;;;;18.67;9.95;;;9.60;99.90;;;;;;5012687;28;20038;-53
2022/12/25 15:01:37;;;;;;;14.25;9.70;;;9.60;99.90;;;;;;5011986;28;20034;-52
2022/12/25 15:04:25;;;;;;;17.13;10.52;;;9.60;99.90;;;;;;5011753;28;20026;-55
2022/12/25 15:07:29;;;;;;;13.23;9.90;;;9.60;99.90;;;;;;5010949;28;20517;-55
2022/12/25 15:10:15;;;;;;;11.88;9.55;;;9.50;99.90;;;;;;5011120;28;20517;-53
2022/12/25 15:13:01;;;;;;;12.88;8.77;;;9.50;99.90;;;;;;5011597;28;20030;-56
2022/12/25 15:16:02;;;;;;;12.07;8.98;;;9.60;99.90;;;;;;5011736;28;20525;-51
2022/12/25 15:18:49;;;;;;;12.32;9.65;;;9.50;99.90;;;;;;5012203;28;20054;-53
2022/12/25 15:21:36;;;;;;;14.68;10.02;;;9.60;99.90;;;;;;5011897;28;20034;-55
2022/12/25 15:24:22;;;;;;;12.68;9.75;;;9.50;99.90;;;;;;5010539;28;20097;-51
2022/12/25 15:27:15;;;;;;;11.75;9.45;;;9.50;99.90;;;;;;5011638;28;20049;-56
2022/12/25 15:30:01;;;;;;;9.95;8.95;;;9.60;99.90;;;;;;5013038;28;20022;-56
2022/12/25 15:32:47;;;;;;;12.15;9.73;;;9.60;99.90;;;;;;5015929;28;20037;-53
2022/12/25 15:35:33;;;;;;;11.23;8.82;;;9.50;99.90;;;;;;5015807;28;20081;-54
2022/12/25 15:38:19;;;;;;;10.48;8.40;;;9.60;99.90;;;;;;5015385;28;20110;-53
2022/12/25 15:42:09;;;;;;;10.88;9.63;;;9.60;99.90;;;;;;5015625;28;20034;-55
2022/12/25 15:44:22;;;;;;;11.43;9.52;;;9.50;99.90;;;;;;5015072;28;20407;-52
2022/12/25 15:47:12;;;;;;;13.90;10.05;;;9.60;99.90;;;;;;5015659;28;20386;-53
2022/12/25 15:49:58;;;;;;;18.45;12.07;;;9.60;99.90;;;;;;5013689;28;20026;-57
2022/12/25 15:52:45;;;;;;;13.52;10.63;;;9.50;99.90;;;;;;4999816;28;20037;-56
2022/12/25 15:55:32;;;;;;;16.02;11.13;;;9.50;99.90;;;;;;5015145;28;20080;-57
2022/12/25 15:58:18;;;;;;;16.52;10.85;;;9.50;99.90;;;;;;5013427;28;20398;-54
2022/12/25 16:01:04;;;;;;;14.10;10.80;;;9.50;99.90;;;;;;5012679;28;20391;-54
2022/12/25 16:03:50;;;;;;;15.63;11.80;;;9.50;99.90;;;;;;5013955;28;20549;-55
2022/12/25 16:06:36;;;;;;;15.88;12.27;;;9.50;99.90;;;;;;5013956;28;20677;-54
2022/12/25 16:09:22;;;;;;;14.20;10.35;;;9.50;99.90;;;;;;5015037;28;20694;-54
2022/12/25 16:12:08;;;;;;;15.02;10.45;;;9.40;99.90;;;;;;5013010;28;20037;-55
2022/12/25 16:14:54;;;;;;;11.20;9.93;;;9.50;99.90;;;;;;5014840;28;20030;-54
2022/12/25 16:17:40;;;;;;;11.80;10.52;;;9.40;99.90;;;;;;5015828;28;20038;-50
2022/12/25 16:20:26;;;;;;;12.98;10.68;;;9.40;99.90;;;;;;5013813;28;20034;-53
2022/12/25 16:23:12;;;;;;;15.40;10.07;;;9.40;99.90;;;;;;5014393;28;20033;-54